sensor_id;sensor_type;location;lat;lon;timestamp;P1;durP1;ratioP1;P2;durP2;ratioP2
2458;SDS011;1241;50.920;6.936;2022-07-23T00:01:21;26.87;;;22.13;;
2458;SDS011;1241;50.920;6.936;2022-07-23T00:03:47;26.93;;;23.03;;
2458;SDS011;1241;50.920;6.936;2022-07-23T00:06:14;24.33;;;21.70;;
2458;SDS011;1241;50.920;6.936;2022-07-23T00:08:40;30.77;;;22.23;;
2458;SDS011;1241;50.920;6.936;2022-07-23T00:11:06;27.17;;;21.90;;
2458;SDS011;1241;50.920;6.936;2022-07-23T00:13:32;24.53;;;20.63;;
2458;SDS011;1241;50.920;6.936;2022-07-23T00:15:57;26.67;;;20.80;;
2458;SDS011;1241;50.920;6.936;2022-07-23T00:18:23;23.37;;;20.40;;
2458;SDS011;1241;50.920;6.936;2022-07-23T00:20:49;24.37;;;21.70;;
2458;SDS011;1241;50.920;6.936;2022-07-23T00:23:15;27.83;;;22.20;;
2458;SDS011;1241;50.920;6.936;2022-07-23T00:25:41;29.03;;;25.43;;
2458;SDS011;1241;50.920;6.936;2022-07-23T00:28:07;27.03;;;23.50;;
2458;SDS011;1241;50.920;6.936;2022-07-23T00:30:33;34.00;;;27.30;;
2458;SDS011;1241;50.920;6.936;2022-07-23T00:33:00;35.70;;;25.50;;
2458;SDS011;1241;50.920;6.936;2022-07-23T00:35:29;28.00;;;22.90;;
2458;SDS011;1241;50.920;6.936;2022-07-23T00:37:56;28.50;;;23.07;;
2458;SDS011;1241;50.920;6.936;2022-07-23T00:40:22;24.17;;;21.57;;
2458;SDS011;1241;50.920;6.936;2022-07-23T00:42:48;29.30;;;22.57;;
2458;SDS011;1241;50.920;6.936;2022-07-23T00:45:14;22.37;;;20.07;;
2458;SDS011;1241;50.920;6.936;2022-07-23T00:47:40;25.73;;;20.80;;
2458;SDS011;1241;50.920;6.936;2022-07-23T00:50:06;25.60;;;20.07;;
2458;SDS011;1241;50.920;6.936;2022-07-23T00:52:34;27.70;;;22.37;;
2458;SDS011;1241;50.920;6.936;2022-07-23T00:55:00;27.30;;;20.23;;
2458;SDS011;1241;50.920;6.936;2022-07-23T00:57:26;25.50;;;20.70;;
2458;SDS011;1241;50.920;6.936;2022-07-23T00:59:52;21.33;;;17.90;;
2458;SDS011;1241;50.920;6.936;2022-07-23T01:02:18;23.10;;;17.50;;
2458;SDS011;1241;50.920;6.936;2022-07-23T01:04:44;25.17;;;19.00;;
2458;SDS011;1241;50.920;6.936;2022-07-23T01:07:10;19.60;;;17.50;;
2458;SDS011;1241;50.920;6.936;2022-07-23T01:09:37;21.00;;;17.23;;
2458;SDS011;1241;50.920;6.936;2022-07-23T01:12:03;22.50;;;18.40;;
2458;SDS011;1241;50.920;6.936;2022-07-23T01:14:30;23.47;;;19.70;;
2458;SDS011;1241;50.920;6.936;2022-07-23T01:16:57;22.50;;;20.00;;
2458;SDS011;1241;50.920;6.936;2022-07-23T01:19:23;25.37;;;19.13;;
2458;SDS011;1241;50.920;6.936;2022-07-23T01:21:49;28.57;;;23.50;;
2458;SDS011;1241;50.920;6.936;2022-07-23T01:24:17;30.67;;;23.40;;
2458;SDS011;1241;50.920;6.936;2022-07-23T01:26:57;24.63;;;21.17;;
2458;SDS011;1241;50.920;6.936;2022-07-23T01:29:23;30.03;;;22.30;;
2458;SDS011;1241;50.920;6.936;2022-07-23T01:31:50;31.87;;;23.57;;
2458;SDS011;1241;50.920;6.936;2022-07-23T01:34:15;28.27;;;23.60;;
2458;SDS011;1241;50.920;6.936;2022-07-23T01:36:42;30.17;;;25.50;;
2458;SDS011;1241;50.920;6.936;2022-07-23T01:39:09;33.37;;;23.33;;
2458;SDS011;1241;50.920;6.936;2022-07-23T01:41:35;38.30;;;26.23;;
2458;SDS011;1241;50.920;6.936;2022-07-23T01:44:02;27.27;;;23.03;;
2458;SDS011;1241;50.920;6.936;2022-07-23T01:46:28;30.37;;;23.43;;
2458;SDS011;1241;50.920;6.936;2022-07-23T01:48:54;22.60;;;18.67;;
2458;SDS011;1241;50.920;6.936;2022-07-23T01:51:38;24.60;;;20.30;;
2458;SDS011;1241;50.920;6.936;2022-07-23T01:54:25;26.23;;;19.00;;
2458;SDS011;1241;50.920;6.936;2022-07-23T01:56:52;23.23;;;19.60;;
2458;SDS011;1241;50.920;6.936;2022-07-23T01:59:18;24.00;;;21.20;;
2458;SDS011;1241;50.920;6.936;2022-07-23T02:01:44;23.87;;;21.37;;
2458;SDS011;1241;50.920;6.936;2022-07-23T02:04:10;24.70;;;20.47;;
2458;SDS011;1241;50.920;6.936;2022-07-23T02:06:36;28.57;;;20.00;;
2458;SDS011;1241;50.920;6.936;2022-07-23T02:09:02;19.23;;;17.23;;
2458;SDS011;1241;50.920;6.936;2022-07-23T02:11:28;21.70;;;19.20;;
2458;SDS011;1241;50.920;6.936;2022-07-23T02:13:54;23.50;;;20.07;;
2458;SDS011;1241;50.920;6.936;2022-07-23T02:16:20;25.37;;;19.37;;
2458;SDS011;1241;50.920;6.936;2022-07-23T02:18:46;22.07;;;18.23;;
2458;SDS011;1241;50.920;6.936;2022-07-23T02:21:12;20.67;;;18.47;;
2458;SDS011;1241;50.920;6.936;2022-07-23T02:23:38;23.47;;;18.27;;
2458;SDS011;1241;50.920;6.936;2022-07-23T02:26:03;26.33;;;18.70;;
2458;SDS011;1241;50.920;6.936;2022-07-23T02:28:29;23.73;;;21.20;;
2458;SDS011;1241;50.920;6.936;2022-07-23T02:30:56;26.87;;;21.43;;
2458;SDS011;1241;50.920;6.936;2022-07-23T02:33:21;24.90;;;21.57;;
2458;SDS011;1241;50.920;6.936;2022-07-23T02:35:47;32.07;;;21.73;;
2458;SDS011;1241;50.920;6.936;2022-07-23T02:38:17;25.27;;;20.70;;
2458;SDS011;1241;50.920;6.936;2022-07-23T02:40:44;27.50;;;22.50;;
2458;SDS011;1241;50.920;6.936;2022-07-23T02:43:10;30.23;;;23.60;;
2458;SDS011;1241;50.920;6.936;2022-07-23T02:45:37;33.63;;;24.33;;
2458;SDS011;1241;50.920;6.936;2022-07-23T02:48:03;29.47;;;23.10;;
2458;SDS011;1241;50.920;6.936;2022-07-23T02:50:29;27.37;;;21.70;;
2458;SDS011;1241;50.920;6.936;2022-07-23T02:52:57;34.23;;;23.33;;
2458;SDS011;1241;50.920;6.936;2022-07-23T02:55:23;31.00;;;25.40;;
2458;SDS011;1241;50.920;6.936;2022-07-23T02:57:51;28.63;;;24.13;;
2458;SDS011;1241;50.920;6.936;2022-07-23T03:00:16;30.80;;;24.13;;
2458;SDS011;1241;50.920;6.936;2022-07-23T03:02:42;29.87;;;24.70;;
2458;SDS011;1241;50.920;6.936;2022-07-23T03:05:08;31.43;;;23.60;;
2458;SDS011;1241;50.920;6.936;2022-07-23T03:07:34;30.33;;;24.63;;
2458;SDS011;1241;50.920;6.936;2022-07-23T03:10:00;30.90;;;25.60;;
2458;SDS011;1241;50.920;6.936;2022-07-23T03:12:26;34.90;;;26.43;;
2458;SDS011;1241;50.920;6.936;2022-07-23T03:14:51;35.43;;;27.80;;
2458;SDS011;1241;50.920;6.936;2022-07-23T03:17:17;39.17;;;28.93;;
2458;SDS011;1241;50.920;6.936;2022-07-23T03:19:43;35.20;;;26.17;;
2458;SDS011;1241;50.920;6.936;2022-07-23T03:22:09;43.40;;;29.60;;
2458;SDS011;1241;50.920;6.936;2022-07-23T03:24:34;47.50;;;30.53;;
2458;SDS011;1241;50.920;6.936;2022-07-23T03:27:25;37.77;;;28.43;;
2458;SDS011;1241;50.920;6.936;2022-07-23T03:29:52;42.88;;;29.05;;
2458;SDS011;1241;50.920;6.936;2022-07-23T03:32:19;38.50;;;28.87;;
2458;SDS011;1241;50.920;6.936;2022-07-23T03:34:46;39.38;;;31.88;;
2458;SDS011;1241;50.920;6.936;2022-07-23T03:37:12;40.70;;;30.30;;
2458;SDS011;1241;50.920;6.936;2022-07-23T03:39:38;38.07;;;28.10;;
2458;SDS011;1241;50.920;6.936;2022-07-23T03:42:04;43.37;;;29.67;;
2458;SDS011;1241;50.920;6.936;2022-07-23T03:44:31;45.90;;;30.83;;
2458;SDS011;1241;50.920;6.936;2022-07-23T03:46:56;39.80;;;30.40;;
2458;SDS011;1241;50.920;6.936;2022-07-23T03:49:22;39.57;;;29.10;;
2458;SDS011;1241;50.920;6.936;2022-07-23T03:51:48;39.63;;;28.20;;
2458;SDS011;1241;50.920;6.936;2022-07-23T03:54:14;39.83;;;30.70;;
2458;SDS011;1241;50.920;6.936;2022-07-23T03:56:40;44.30;;;32.70;;
2458;SDS011;1241;50.920;6.936;2022-07-23T03:59:05;46.93;;;33.20;;
2458;SDS011;1241;50.920;6.936;2022-07-23T04:01:32;42.70;;;30.90;;
2458;SDS011;1241;50.920;6.936;2022-07-23T04:03:57;44.80;;;30.67;;
2458;SDS011;1241;50.920;6.936;2022-07-23T04:06:24;40.27;;;31.37;;
2458;SDS011;1241;50.920;6.936;2022-07-23T04:08:51;43.23;;;31.23;;
2458;SDS011;1241;50.920;6.936;2022-07-23T04:11:17;45.67;;;33.20;;
2458;SDS011;1241;50.920;6.936;2022-07-23T04:13:43;42.03;;;33.07;;
2458;SDS011;1241;50.920;6.936;2022-07-23T04:16:10;50.27;;;34.67;;
2458;SDS011;1241;50.920;6.936;2022-07-23T04:18:35;52.07;;;35.30;;
2458;SDS011;1241;50.920;6.936;2022-07-23T04:21:10;47.20;;;34.93;;
2458;SDS011;1241;50.920;6.936;2022-07-23T04:23:37;48.37;;;30.93;;
2458;SDS011;1241;50.920;6.936;2022-07-23T04:26:04;53.83;;;34.23;;
2458;SDS011;1241;50.920;6.936;2022-07-23T04:28:30;49.73;;;32.33;;
2458;SDS011;1241;50.920;6.936;2022-07-23T04:30:56;42.90;;;30.63;;
2458;SDS011;1241;50.920;6.936;2022-07-23T04:33:23;41.90;;;32.00;;
2458;SDS011;1241;50.920;6.936;2022-07-23T04:35:52;44.00;;;32.40;;
2458;SDS011;1241;50.920;6.936;2022-07-23T04:38:19;44.00;;;29.20;;
2458;SDS011;1241;50.920;6.936;2022-07-23T04:40:46;36.17;;;26.90;;
2458;SDS011;1241;50.920;6.936;2022-07-23T04:43:11;38.00;;;28.60;;
2458;SDS011;1241;50.920;6.936;2022-07-23T04:45:47;30.20;;;24.30;;
2458;SDS011;1241;50.920;6.936;2022-07-23T04:48:13;36.13;;;26.17;;
2458;SDS011;1241;50.920;6.936;2022-07-23T04:50:39;35.33;;;27.03;;
2458;SDS011;1241;50.920;6.936;2022-07-23T04:53:13;32.50;;;24.10;;
2458;SDS011;1241;50.920;6.936;2022-07-23T04:55:40;29.17;;;23.13;;
2458;SDS011;1241;50.920;6.936;2022-07-23T04:58:06;29.90;;;24.47;;
2458;SDS011;1241;50.920;6.936;2022-07-23T05:00:32;28.17;;;24.67;;
2458;SDS011;1241;50.920;6.936;2022-07-23T05:02:58;26.80;;;21.90;;
2458;SDS011;1241;50.920;6.936;2022-07-23T05:05:23;30.43;;;24.43;;
2458;SDS011;1241;50.920;6.936;2022-07-23T05:07:52;27.47;;;23.60;;
2458;SDS011;1241;50.920;6.936;2022-07-23T05:10:18;34.53;;;25.57;;
2458;SDS011;1241;50.920;6.936;2022-07-23T05:12:44;30.97;;;24.63;;
2458;SDS011;1241;50.920;6.936;2022-07-23T05:15:09;26.90;;;22.73;;
2458;SDS011;1241;50.920;6.936;2022-07-23T05:17:35;28.20;;;23.73;;
2458;SDS011;1241;50.920;6.936;2022-07-23T05:20:06;31.47;;;23.57;;
2458;SDS011;1241;50.920;6.936;2022-07-23T05:22:32;29.87;;;23.43;;
2458;SDS011;1241;50.920;6.936;2022-07-23T05:24:58;27.97;;;23.43;;
2458;SDS011;1241;50.920;6.936;2022-07-23T05:27:24;29.20;;;23.60;;
2458;SDS011;1241;50.920;6.936;2022-07-23T05:29:50;30.87;;;25.27;;
2458;SDS011;1241;50.920;6.936;2022-07-23T05:32:16;29.00;;;23.17;;
2458;SDS011;1241;50.920;6.936;2022-07-23T05:34:50;28.10;;;22.20;;
2458;SDS011;1241;50.920;6.936;2022-07-23T05:37:16;26.23;;;23.37;;
2458;SDS011;1241;50.920;6.936;2022-07-23T05:39:42;28.00;;;23.57;;
2458;SDS011;1241;50.920;6.936;2022-07-23T05:42:08;27.60;;;23.97;;
2458;SDS011;1241;50.920;6.936;2022-07-23T05:44:34;23.20;;;20.60;;
2458;SDS011;1241;50.920;6.936;2022-07-23T05:47:00;26.67;;;22.00;;
2458;SDS011;1241;50.920;6.936;2022-07-23T05:49:27;23.40;;;20.90;;
2458;SDS011;1241;50.920;6.936;2022-07-23T05:51:53;30.30;;;23.97;;
2458;SDS011;1241;50.920;6.936;2022-07-23T05:54:28;24.13;;;21.63;;
2458;SDS011;1241;50.920;6.936;2022-07-23T05:56:54;26.83;;;22.67;;
2458;SDS011;1241;50.920;6.936;2022-07-23T05:59:21;24.90;;;21.40;;
2458;SDS011;1241;50.920;6.936;2022-07-23T06:01:46;27.57;;;24.00;;
2458;SDS011;1241;50.920;6.936;2022-07-23T06:04:12;28.40;;;23.93;;
2458;SDS011;1241;50.920;6.936;2022-07-23T06:06:45;27.40;;;23.33;;
2458;SDS011;1241;50.920;6.936;2022-07-23T06:09:11;24.57;;;21.47;;
2458;SDS011;1241;50.920;6.936;2022-07-23T06:11:39;25.73;;;21.53;;
2458;SDS011;1241;50.920;6.936;2022-07-23T06:14:05;24.50;;;21.27;;
2458;SDS011;1241;50.920;6.936;2022-07-23T06:16:45;26.57;;;20.27;;
2458;SDS011;1241;50.920;6.936;2022-07-23T06:19:11;24.97;;;21.00;;
2458;SDS011;1241;50.920;6.936;2022-07-23T06:21:37;29.00;;;21.73;;
2458;SDS011;1241;50.920;6.936;2022-07-23T06:24:02;27.83;;;20.87;;
2458;SDS011;1241;50.920;6.936;2022-07-23T06:26:28;23.50;;;19.10;;
2458;SDS011;1241;50.920;6.936;2022-07-23T06:28:54;23.70;;;20.07;;
2458;SDS011;1241;50.920;6.936;2022-07-23T06:31:20;22.47;;;18.97;;
2458;SDS011;1241;50.920;6.936;2022-07-23T06:33:45;26.17;;;21.83;;
2458;SDS011;1241;50.920;6.936;2022-07-23T06:36:12;20.60;;;18.40;;
2458;SDS011;1241;50.920;6.936;2022-07-23T06:38:39;20.10;;;17.60;;
2458;SDS011;1241;50.920;6.936;2022-07-23T06:41:05;21.60;;;19.40;;
2458;SDS011;1241;50.920;6.936;2022-07-23T06:43:31;21.00;;;18.80;;
2458;SDS011;1241;50.920;6.936;2022-07-23T06:45:56;19.73;;;17.70;;
2458;SDS011;1241;50.920;6.936;2022-07-23T06:48:23;20.43;;;18.00;;
2458;SDS011;1241;50.920;6.936;2022-07-23T06:50:49;19.83;;;17.90;;
2458;SDS011;1241;50.920;6.936;2022-07-23T06:53:21;21.70;;;18.63;;
2458;SDS011;1241;50.920;6.936;2022-07-23T06:55:47;21.57;;;17.43;;
2458;SDS011;1241;50.920;6.936;2022-07-23T06:58:13;22.37;;;20.03;;
2458;SDS011;1241;50.920;6.936;2022-07-23T07:00:39;21.37;;;19.07;;
2458;SDS011;1241;50.920;6.936;2022-07-23T07:03:05;19.60;;;17.33;;
2458;SDS011;1241;50.920;6.936;2022-07-23T07:05:31;19.57;;;17.67;;
2458;SDS011;1241;50.920;6.936;2022-07-23T07:07:57;17.63;;;15.80;;
2458;SDS011;1241;50.920;6.936;2022-07-23T07:10:22;18.20;;;16.20;;
2458;SDS011;1241;50.920;6.936;2022-07-23T07:12:48;17.67;;;15.97;;
2458;SDS011;1241;50.920;6.936;2022-07-23T07:15:14;20.13;;;18.23;;
2458;SDS011;1241;50.920;6.936;2022-07-23T07:17:40;19.10;;;17.20;;
2458;SDS011;1241;50.920;6.936;2022-07-23T07:20:07;19.27;;;17.40;;
2458;SDS011;1241;50.920;6.936;2022-07-23T07:22:33;19.93;;;17.57;;
2458;SDS011;1241;50.920;6.936;2022-07-23T07:24:59;17.17;;;15.70;;
2458;SDS011;1241;50.920;6.936;2022-07-23T07:27:25;18.17;;;16.27;;
2458;SDS011;1241;50.920;6.936;2022-07-23T07:29:50;17.67;;;15.57;;
2458;SDS011;1241;50.920;6.936;2022-07-23T07:32:16;20.20;;;18.17;;
2458;SDS011;1241;50.920;6.936;2022-07-23T07:34:42;17.07;;;15.37;;
2458;SDS011;1241;50.920;6.936;2022-07-23T07:37:07;19.57;;;17.23;;
2458;SDS011;1241;50.920;6.936;2022-07-23T07:39:33;17.67;;;15.80;;
2458;SDS011;1241;50.920;6.936;2022-07-23T07:41:59;18.43;;;16.50;;
2458;SDS011;1241;50.920;6.936;2022-07-23T07:44:25;17.73;;;15.93;;
2458;SDS011;1241;50.920;6.936;2022-07-23T07:46:50;15.03;;;13.53;;
2458;SDS011;1241;50.920;6.936;2022-07-23T07:49:16;14.07;;;12.67;;
2458;SDS011;1241;50.920;6.936;2022-07-23T07:51:44;11.43;;;10.33;;
2458;SDS011;1241;50.920;6.936;2022-07-23T07:54:11;13.13;;;12.00;;
2458;SDS011;1241;50.920;6.936;2022-07-23T07:56:37;15.90;;;14.40;;
2458;SDS011;1241;50.920;6.936;2022-07-23T07:59:03;14.63;;;13.20;;
2458;SDS011;1241;50.920;6.936;2022-07-23T08:01:29;14.17;;;12.87;;
2458;SDS011;1241;50.920;6.936;2022-07-23T08:03:54;15.40;;;13.97;;
2458;SDS011;1241;50.920;6.936;2022-07-23T08:06:20;14.63;;;13.23;;
2458;SDS011;1241;50.920;6.936;2022-07-23T08:08:46;15.87;;;14.27;;
2458;SDS011;1241;50.920;6.936;2022-07-23T08:11:11;14.70;;;13.27;;
2458;SDS011;1241;50.920;6.936;2022-07-23T08:13:37;17.33;;;15.70;;
2458;SDS011;1241;50.920;6.936;2022-07-23T08:16:03;16.57;;;14.80;;
2458;SDS011;1241;50.920;6.936;2022-07-23T08:18:29;19.40;;;15.00;;
2458;SDS011;1241;50.920;6.936;2022-07-23T08:20:54;16.37;;;14.80;;
2458;SDS011;1241;50.920;6.936;2022-07-23T08:23:20;16.47;;;14.17;;
2458;SDS011;1241;50.920;6.936;2022-07-23T08:25:46;16.00;;;13.27;;
2458;SDS011;1241;50.920;6.936;2022-07-23T08:28:13;17.00;;;15.17;;
2458;SDS011;1241;50.920;6.936;2022-07-23T08:30:40;19.07;;;17.37;;
2458;SDS011;1241;50.920;6.936;2022-07-23T08:33:08;16.40;;;14.90;;
2458;SDS011;1241;50.920;6.936;2022-07-23T08:35:39;19.50;;;17.77;;
2458;SDS011;1241;50.920;6.936;2022-07-23T08:38:07;20.10;;;18.10;;
2458;SDS011;1241;50.920;6.936;2022-07-23T08:40:35;21.60;;;19.17;;
2458;SDS011;1241;50.920;6.936;2022-07-23T08:43:04;19.93;;;18.30;;
2458;SDS011;1241;50.920;6.936;2022-07-23T08:45:31;21.77;;;19.77;;
2458;SDS011;1241;50.920;6.936;2022-07-23T08:48:05;21.23;;;19.10;;
2458;SDS011;1241;50.920;6.936;2022-07-23T08:50:42;18.40;;;16.80;;
2458;SDS011;1241;50.920;6.936;2022-07-23T08:53:09;19.80;;;17.93;;
2458;SDS011;1241;50.920;6.936;2022-07-23T08:55:35;19.77;;;17.93;;
2458;SDS011;1241;50.920;6.936;2022-07-23T08:58:01;21.57;;;19.37;;
2458;SDS011;1241;50.920;6.936;2022-07-23T09:00:28;20.73;;;18.83;;
2458;SDS011;1241;50.920;6.936;2022-07-23T09:02:54;20.93;;;18.97;;
2458;SDS011;1241;50.920;6.936;2022-07-23T09:05:20;21.53;;;19.30;;
2458;SDS011;1241;50.920;6.936;2022-07-23T09:13:46;20.23;;;18.43;;
2458;SDS011;1241;50.920;6.936;2022-07-23T09:16:17;23.03;;;20.83;;
2458;SDS011;1241;50.920;6.936;2022-07-23T09:18:55;22.50;;;20.40;;
2458;SDS011;1241;50.920;6.936;2022-07-23T09:21:31;23.60;;;21.23;;
2458;SDS011;1241;50.920;6.936;2022-07-23T09:26:37;23.87;;;21.60;;
2458;SDS011;1241;50.920;6.936;2022-07-23T09:29:11;23.50;;;21.20;;
2458;SDS011;1241;50.920;6.936;2022-07-23T09:34:12;21.77;;;20.00;;
2458;SDS011;1241;50.920;6.936;2022-07-23T09:36:47;22.27;;;20.53;;
2458;SDS011;1241;50.920;6.936;2022-07-23T09:39:14;21.67;;;19.77;;
2458;SDS011;1241;50.920;6.936;2022-07-23T09:41:46;22.00;;;20.20;;
2458;SDS011;1241;50.920;6.936;2022-07-23T09:44:13;20.30;;;18.63;;
2458;SDS011;1241;50.920;6.936;2022-07-23T09:46:45;20.37;;;18.67;;
2458;SDS011;1241;50.920;6.936;2022-07-23T09:49:13;21.17;;;19.47;;
2458;SDS011;1241;50.920;6.936;2022-07-23T09:51:53;23.50;;;21.53;;
2458;SDS011;1241;50.920;6.936;2022-07-23T09:54:23;22.17;;;20.37;;
2458;SDS011;1241;50.920;6.936;2022-07-23T09:56:59;20.00;;;18.30;;
2458;SDS011;1241;50.920;6.936;2022-07-23T09:59:31;20.63;;;18.93;;
2458;SDS011;1241;50.920;6.936;2022-07-23T10:01:59;22.03;;;20.23;;
2458;SDS011;1241;50.920;6.936;2022-07-23T10:04:27;24.70;;;22.13;;
2458;SDS011;1241;50.920;6.936;2022-07-23T10:07:12;25.90;;;23.40;;
2458;SDS011;1241;50.920;6.936;2022-07-23T10:09:57;21.37;;;19.10;;
2458;SDS011;1241;50.920;6.936;2022-07-23T10:12:27;17.70;;;16.17;;
2458;SDS011;1241;50.920;6.936;2022-07-23T10:14:58;17.40;;;15.83;;
2458;SDS011;1241;50.920;6.936;2022-07-23T10:17:25;22.70;;;20.90;;
2458;SDS011;1241;50.920;6.936;2022-07-23T10:19:53;19.90;;;18.10;;
2458;SDS011;1241;50.920;6.936;2022-07-23T10:22:33;18.27;;;16.67;;
2458;SDS011;1241;50.920;6.936;2022-07-23T10:36:18;18.67;;;17.03;;
2458;SDS011;1241;50.920;6.936;2022-07-23T10:41:12;18.20;;;16.73;;
2458;SDS011;1241;50.920;6.936;2022-07-23T10:43:38;14.80;;;13.60;;
2458;SDS011;1241;50.920;6.936;2022-07-23T10:46:37;17.97;;;16.17;;
2458;SDS011;1241;50.920;6.936;2022-07-23T10:52:36;13.30;;;12.20;;
2458;SDS011;1241;50.920;6.936;2022-07-23T10:57:48;13.93;;;12.70;;
2458;SDS011;1241;50.920;6.936;2022-07-23T11:00:16;12.97;;;11.90;;
2458;SDS011;1241;50.920;6.936;2022-07-23T11:02:46;13.50;;;12.47;;
2458;SDS011;1241;50.920;6.936;2022-07-23T11:05:17;14.73;;;13.60;;
2458;SDS011;1241;50.920;6.936;2022-07-23T11:10:32;13.93;;;12.60;;
2458;SDS011;1241;50.920;6.936;2022-07-23T11:22:06;14.60;;;13.40;;
2458;SDS011;1241;50.920;6.936;2022-07-23T11:32:00;15.10;;;12.13;;
2458;SDS011;1241;50.920;6.936;2022-07-23T11:34:29;11.37;;;10.47;;
2458;SDS011;1241;50.920;6.936;2022-07-23T11:36:55;13.17;;;12.17;;
2458;SDS011;1241;50.920;6.936;2022-07-23T11:39:21;11.67;;;10.63;;
2458;SDS011;1241;50.920;6.936;2022-07-23T11:41:51;12.87;;;11.80;;
2458;SDS011;1241;50.920;6.936;2022-07-23T11:44:26;10.50;;;9.63;;
2458;SDS011;1241;50.920;6.936;2022-07-23T11:49:24;11.43;;;10.40;;
2458;SDS011;1241;50.920;6.936;2022-07-23T11:54:54;11.37;;;10.47;;
2458;SDS011;1241;50.920;6.936;2022-07-23T11:57:29;11.30;;;9.60;;
2458;SDS011;1241;50.920;6.936;2022-07-23T12:00:18;11.13;;;10.03;;
2458;SDS011;1241;50.920;6.936;2022-07-23T12:02:48;12.30;;;11.30;;
2458;SDS011;1241;50.920;6.936;2022-07-23T12:05:19;11.30;;;10.50;;
2458;SDS011;1241;50.920;6.936;2022-07-23T12:07:46;12.07;;;11.00;;
2458;SDS011;1241;50.920;6.936;2022-07-23T12:10:20;10.60;;;9.80;;
2458;SDS011;1241;50.920;6.936;2022-07-23T12:15:18;9.80;;;9.10;;
2458;SDS011;1241;50.920;6.936;2022-07-23T12:17:47;10.17;;;9.17;;
2458;SDS011;1241;50.920;6.936;2022-07-23T12:20:16;8.63;;;7.93;;
2458;SDS011;1241;50.920;6.936;2022-07-23T12:22:44;8.50;;;7.80;;
2458;SDS011;1241;50.920;6.936;2022-07-23T12:25:13;9.93;;;9.03;;
2458;SDS011;1241;50.920;6.936;2022-07-23T12:27:58;8.83;;;8.03;;
2458;SDS011;1241;50.920;6.936;2022-07-23T12:30:27;9.00;;;8.23;;
2458;SDS011;1241;50.920;6.936;2022-07-23T12:32:56;9.30;;;8.40;;
2458;SDS011;1241;50.920;6.936;2022-07-23T12:35:23;9.60;;;8.90;;
2458;SDS011;1241;50.920;6.936;2022-07-23T12:37:59;8.80;;;8.10;;
2458;SDS011;1241;50.920;6.936;2022-07-23T12:45:22;8.37;;;7.60;;
2458;SDS011;1241;50.920;6.936;2022-07-23T12:50:30;8.00;;;7.40;;
2458;SDS011;1241;50.920;6.936;2022-07-23T12:53:05;7.80;;;7.20;;
2458;SDS011;1241;50.920;6.936;2022-07-23T12:55:36;8.57;;;7.70;;
2458;SDS011;1241;50.920;6.936;2022-07-23T12:58:07;8.70;;;8.00;;
2458;SDS011;1241;50.920;6.936;2022-07-23T13:00:59;9.73;;;9.07;;
2458;SDS011;1241;50.920;6.936;2022-07-23T13:05:58;7.63;;;7.03;;
2458;SDS011;1241;50.920;6.936;2022-07-23T13:08:26;7.17;;;6.57;;
2458;SDS011;1241;50.920;6.936;2022-07-23T13:10:53;6.53;;;5.97;;
2458;SDS011;1241;50.920;6.936;2022-07-23T13:13:22;6.93;;;6.33;;
2458;SDS011;1241;50.920;6.936;2022-07-23T13:15:49;7.90;;;7.30;;
2458;SDS011;1241;50.920;6.936;2022-07-23T13:18:16;8.00;;;7.17;;
2458;SDS011;1241;50.920;6.936;2022-07-23T13:20:43;7.00;;;6.43;;
2458;SDS011;1241;50.920;6.936;2022-07-23T13:23:09;7.97;;;7.37;;
2458;SDS011;1241;50.920;6.936;2022-07-23T13:25:35;6.20;;;5.70;;
2458;SDS011;1241;50.920;6.936;2022-07-23T13:28:01;6.97;;;6.47;;
2458;SDS011;1241;50.920;6.936;2022-07-23T13:30:27;6.57;;;6.00;;
2458;SDS011;1241;50.920;6.936;2022-07-23T13:32:53;6.57;;;5.97;;
2458;SDS011;1241;50.920;6.936;2022-07-23T13:35:18;6.70;;;6.20;;
2458;SDS011;1241;50.920;6.936;2022-07-23T13:37:44;6.60;;;5.97;;
2458;SDS011;1241;50.920;6.936;2022-07-23T13:40:10;6.10;;;5.60;;
2458;SDS011;1241;50.920;6.936;2022-07-23T13:42:36;6.30;;;5.80;;
2458;SDS011;1241;50.920;6.936;2022-07-23T13:45:03;7.43;;;6.70;;
2458;SDS011;1241;50.920;6.936;2022-07-23T13:47:30;7.73;;;7.03;;
2458;SDS011;1241;50.920;6.936;2022-07-23T13:49:56;6.47;;;5.90;;
2458;SDS011;1241;50.920;6.936;2022-07-23T13:52:21;5.93;;;5.53;;
2458;SDS011;1241;50.920;6.936;2022-07-23T13:54:47;6.37;;;5.77;;
2458;SDS011;1241;50.920;6.936;2022-07-23T13:57:13;6.03;;;5.53;;
2458;SDS011;1241;50.920;6.936;2022-07-23T13:59:39;6.33;;;5.83;;
2458;SDS011;1241;50.920;6.936;2022-07-23T14:02:05;6.23;;;5.73;;
2458;SDS011;1241;50.920;6.936;2022-07-23T14:04:31;7.17;;;6.50;;
2458;SDS011;1241;50.920;6.936;2022-07-23T14:06:57;6.87;;;6.37;;
2458;SDS011;1241;50.920;6.936;2022-07-23T14:09:22;7.23;;;6.63;;
2458;SDS011;1241;50.920;6.936;2022-07-23T14:11:49;6.80;;;6.30;;
2458;SDS011;1241;50.920;6.936;2022-07-23T14:14:17;6.70;;;6.00;;
2458;SDS011;1241;50.920;6.936;2022-07-23T14:16:43;6.70;;;6.10;;
2458;SDS011;1241;50.920;6.936;2022-07-23T14:19:10;7.10;;;6.60;;
2458;SDS011;1241;50.920;6.936;2022-07-23T14:21:36;7.00;;;6.50;;
2458;SDS011;1241;50.920;6.936;2022-07-23T14:24:03;6.07;;;5.60;;
2458;SDS011;1241;50.920;6.936;2022-07-23T14:26:29;6.83;;;6.33;;
2458;SDS011;1241;50.920;6.936;2022-07-23T14:28:55;7.37;;;6.87;;
2458;SDS011;1241;50.920;6.936;2022-07-23T14:31:21;6.73;;;5.87;;
2458;SDS011;1241;50.920;6.936;2022-07-23T14:33:47;6.93;;;6.27;;
2458;SDS011;1241;50.920;6.936;2022-07-23T14:36:15;7.00;;;6.30;;
2458;SDS011;1241;50.920;6.936;2022-07-23T14:38:41;7.20;;;6.60;;
2458;SDS011;1241;50.920;6.936;2022-07-23T14:41:07;6.60;;;6.17;;
2458;SDS011;1241;50.920;6.936;2022-07-23T14:43:34;7.47;;;6.93;;
2458;SDS011;1241;50.920;6.936;2022-07-23T14:46:00;6.53;;;5.87;;
2458;SDS011;1241;50.920;6.936;2022-07-23T14:48:26;6.50;;;5.80;;
2458;SDS011;1241;50.920;6.936;2022-07-23T14:50:52;6.93;;;5.90;;
2458;SDS011;1241;50.920;6.936;2022-07-23T14:53:17;8.30;;;5.63;;
2458;SDS011;1241;50.920;6.936;2022-07-23T14:55:43;5.97;;;5.60;;
2458;SDS011;1241;50.920;6.936;2022-07-23T14:58:09;6.93;;;5.47;;
2458;SDS011;1241;50.920;6.936;2022-07-23T15:00:35;6.00;;;5.57;;
2458;SDS011;1241;50.920;6.936;2022-07-23T15:03:01;6.30;;;5.83;;
2458;SDS011;1241;50.920;6.936;2022-07-23T15:05:26;6.80;;;6.20;;
2458;SDS011;1241;50.920;6.936;2022-07-23T15:07:53;7.80;;;6.07;;
2458;SDS011;1241;50.920;6.936;2022-07-23T15:10:20;6.57;;;6.13;;
2458;SDS011;1241;50.920;6.936;2022-07-23T15:12:45;6.67;;;6.17;;
2458;SDS011;1241;50.920;6.936;2022-07-23T15:15:11;8.07;;;5.97;;
2458;SDS011;1241;50.920;6.936;2022-07-23T15:17:38;6.30;;;5.63;;
2458;SDS011;1241;50.920;6.936;2022-07-23T15:20:04;6.17;;;5.67;;
2458;SDS011;1241;50.920;6.936;2022-07-23T15:22:30;8.30;;;7.50;;
2458;SDS011;1241;50.920;6.936;2022-07-23T15:24:56;8.03;;;7.53;;
2458;SDS011;1241;50.920;6.936;2022-07-23T15:27:22;7.90;;;7.30;;
2458;SDS011;1241;50.920;6.936;2022-07-23T15:29:47;7.10;;;6.60;;
2458;SDS011;1241;50.920;6.936;2022-07-23T15:32:13;7.07;;;6.50;;
2458;SDS011;1241;50.920;6.936;2022-07-23T15:34:39;8.37;;;7.50;;
2458;SDS011;1241;50.920;6.936;2022-07-23T15:37:05;6.50;;;6.07;;
2458;SDS011;1241;50.920;6.936;2022-07-23T15:39:31;7.70;;;7.10;;
2458;SDS011;1241;50.920;6.936;2022-07-23T15:41:58;6.73;;;6.20;;
2458;SDS011;1241;50.920;6.936;2022-07-23T15:44:24;7.00;;;6.43;;
2458;SDS011;1241;50.920;6.936;2022-07-23T15:46:50;6.90;;;6.30;;
2458;SDS011;1241;50.920;6.936;2022-07-23T15:49:16;5.87;;;5.37;;
2458;SDS011;1241;50.920;6.936;2022-07-23T15:51:42;5.30;;;4.97;;
2458;SDS011;1241;50.920;6.936;2022-07-23T15:54:07;5.80;;;5.50;;
2458;SDS011;1241;50.920;6.936;2022-07-23T15:56:33;6.70;;;6.10;;
2458;SDS011;1241;50.920;6.936;2022-07-23T15:58:59;5.90;;;5.40;;
2458;SDS011;1241;50.920;6.936;2022-07-23T16:01:25;6.47;;;5.87;;
2458;SDS011;1241;50.920;6.936;2022-07-23T16:03:54;5.40;;;4.90;;
2458;SDS011;1241;50.920;6.936;2022-07-23T16:06:20;5.33;;;4.90;;